Time;durP1;ratioP1;P1;durP2;ratioP2;P2;SDS_P1;SDS_P2;PMS_P1;PMS_P2;Temp;Humidity;BMP_temperature;BMP_pressure;BME280_temperature;BME280_humidity;BME280_pressure;Samples;Min_cycle;Max_cycle;Signal;HPM_P1;HPM_P2
2024/01/24 00:01:05;;;;;;;15.23;3.75;;;9.80;99.90;;;;;;6308392;22;20022;-23
2024/01/24 00:03:30;;;;;;;26.55;5.63;;;9.80;99.90;;;;;;6280939;22;20023;-23
2024/01/24 00:05:56;;;;;;;25.95;4.80;;;9.90;99.90;;;;;;6308076;22;20019;-23
2024/01/24 00:08:22;;;;;;;23.92;4.43;;;9.90;99.90;;;;;;6281644;22;20030;-23
2024/01/24 00:10:48;;;;;;;12.68;2.70;;;9.90;99.90;;;;;;6280887;22;20339;-23
2024/01/24 00:13:13;;;;;;;26.35;5.22;;;10.00;99.90;;;;;;6255932;22;20062;-23
2024/01/24 00:15:39;;;;;;;17.42;4.40;;;10.10;99.90;;;;;;6307830;22;20019;-23
2024/01/24 00:18:05;;;;;;;24.02;3.53;;;10.20;99.90;;;;;;6308703;22;20054;-23
2024/01/24 00:20:30;;;;;;;26.23;4.85;;;10.30;99.90;;;;;;6307913;22;20019;-23
2024/01/24 00:22:56;;;;;;;24.73;5.47;;;10.40;99.90;;;;;;6307620;22;20073;-23
2024/01/24 00:25:22;;;;;;;19.10;5.55;;;10.40;99.90;;;;;;6281778;22;20098;-23
2024/01/24 00:27:48;;;;;;;18.35;3.13;;;10.50;99.90;;;;;;6307965;22;20373;-23
2024/01/24 00:30:14;;;;;;;21.02;3.95;;;10.50;99.90;;;;;;6308372;22;20016;-24
2024/01/24 00:32:39;;;;;;;16.65;4.13;;;10.50;99.90;;;;;;6307977;22;20015;-24
2024/01/24 00:35:05;;;;;;;21.27;4.03;;;10.50;99.90;;;;;;6281103;22;20022;-24
2024/01/24 00:37:31;;;;;;;21.90;4.20;;;10.70;99.90;;;;;;6307988;22;20050;-24
2024/01/24 00:39:57;;;;;;;21.15;4.63;;;10.60;99.90;;;;;;6307846;22;20379;-23
2024/01/24 00:42:23;;;;;;;16.55;3.85;;;10.60;99.90;;;;;;6307889;22;20018;-24
2024/01/24 00:44:50;;;;;;;22.55;4.55;;;10.60;99.90;;;;;;6308604;22;20015;-23
2024/01/24 00:47:18;;;;;;;14.82;3.35;;;10.70;99.90;;;;;;6307923;22;20026;-24
2024/01/24 00:49:44;;;;;;;16.63;4.25;;;10.60;99.90;;;;;;6307892;22;20011;-24
2024/01/24 00:52:10;;;;;;;23.10;4.88;;;10.70;99.90;;;;;;6280597;22;20330;-24
2024/01/24 00:54:35;;;;;;;17.15;3.17;;;10.70;99.90;;;;;;6307845;22;20020;-23
2024/01/24 00:57:01;;;;;;;16.50;3.42;;;10.60;99.90;;;;;;6280363;22;20026;-24
2024/01/24 00:59:27;;;;;;;21.42;4.03;;;10.60;99.90;;;;;;6281449;22;20363;-23
2024/01/24 01:01:53;;;;;;;16.05;4.30;;;10.50;99.90;;;;;;6307857;22;20061;-21
2024/01/24 01:04:18;;;;;;;13.75;2.97;;;10.40;99.90;;;;;;6280629;22;20021;-21
2024/01/24 01:06:44;;;;;;;14.20;2.95;;;10.30;99.90;;;;;;6307840;22;20019;-21
2024/01/24 01:09:10;;;;;;;20.98;4.40;;;10.20;99.90;;;;;;6280964;22;20085;-20
2024/01/24 01:11:36;;;;;;;14.65;2.78;;;10.30;99.90;;;;;;6280596;22;20011;-20
2024/01/24 01:14:03;;;;;;;16.25;3.45;;;10.20;99.90;;;;;;6308829;22;20023;-20
2024/01/24 01:16:29;;;;;;;16.13;3.53;;;10.20;99.90;;;;;;6308135;22;20020;-21
2024/01/24 01:18:54;;;;;;;10.77;2.92;;;10.20;99.90;;;;;;6281412;22;20293;-22
2024/01/24 01:21:20;;;;;;;31.00;4.38;;;10.20;99.90;;;;;;6280504;22;20015;-21
2024/01/24 01:23:46;;;;;;;22.55;4.30;;;10.20;99.90;;;;;;6280561;22;20066;-21
2024/01/24 01:26:11;;;;;;;19.00;3.80;;;10.30;99.90;;;;;;6255311;22;20086;-21
2024/01/24 01:28:37;;;;;;;25.80;4.80;;;10.30;99.90;;;;;;6309578;22;20019;-21
2024/01/24 01:31:03;;;;;;;17.88;2.92;;;10.30;99.90;;;;;;6283258;22;20449;-22
2024/01/24 01:33:29;;;;;;;16.92;3.42;;;10.30;99.90;;;;;;6309542;22;20069;-22
2024/01/24 01:35:55;;;;;;;18.58;3.03;;;10.40;99.90;;;;;;6310215;22;20057;-22
2024/01/24 01:38:20;;;;;;;17.45;4.45;;;10.40;99.90;;;;;;6310438;22;20091;-22
2024/01/24 01:40:46;;;;;;;16.75;2.92;;;10.40;99.90;;;;;;6309311;22;20498;-22
2024/01/24 01:43:16;;;;;;;15.27;3.28;;;10.40;99.90;;;;;;6309038;22;20023;-22
2024/01/24 01:45:42;;;;;;;16.02;3.17;;;10.40;99.90;;;;;;6309387;22;20439;-22
2024/01/24 01:48:10;;;;;;;9.18;2.92;;;10.30;99.90;;;;;;6309314;22;20027;-22
2024/01/24 01:50:36;;;;;;;13.82;2.90;;;10.50;99.90;;;;;;6282072;22;20087;-22
2024/01/24 01:53:03;;;;;;;12.73;2.05;;;10.50;99.90;;;;;;6309273;22;20461;-22
2024/01/24 01:55:33;;;;;;;15.65;3.15;;;10.50;99.90;;;;;;6282054;22;20016;-22
2024/01/24 01:58:00;;;;;;;13.10;3.00;;;10.50;99.90;;;;;;6283883;22;20045;-22
2024/01/24 02:00:26;;;;;;;10.13;1.90;;;10.50;99.90;;;;;;6308806;22;20339;-22
2024/01/24 02:02:53;;;;;;;17.15;2.85;;;10.40;99.90;;;;;;6309234;22;20016;-22
2024/01/24 02:05:19;;;;;;;11.60;2.78;;;10.40;99.90;;;;;;6309325;22;20015;-22
2024/01/24 02:07:45;;;;;;;8.60;2.40;;;10.50;99.90;;;;;;6309174;22;20057;-22
2024/01/24 02:10:12;;;;;;;9.25;2.35;;;10.50;99.90;;;;;;6281854;22;20500;-23
2024/01/24 02:12:38;;;;;;;14.80;2.78;;;10.60;99.90;;;;;;6309146;22;20094;-22
2024/01/24 02:15:04;;;;;;;8.75;2.30;;;10.80;99.90;;;;;;6309117;22;20042;-23
2024/01/24 02:17:29;;;;;;;10.35;2.40;;;10.90;99.90;;;;;;6256796;22;20454;-23
2024/01/24 02:19:55;;;;;;;12.52;2.15;;;11.00;99.90;;;;;;6281963;22;20015;-23
2024/01/24 02:22:21;;;;;;;7.65;2.78;;;11.00;99.90;;;;;;6281873;22;20016;-23
2024/01/24 02:24:47;;;;;;;8.57;1.80;;;11.00;99.90;;;;;;6282693;22;20016;-23
2024/01/24 02:27:13;;;;;;;11.02;2.63;;;11.00;99.90;;;;;;6309740;22;20088;-23
2024/01/24 02:29:39;;;;;;;8.57;2.08;;;11.00;99.90;;;;;;6310045;22;20050;-23
2024/01/24 02:32:05;;;;;;;13.90;2.85;;;11.00;99.90;;;;;;6308972;22;20465;-23
2024/01/24 02:34:31;;;;;;;9.85;2.08;;;10.90;99.90;;;;;;6309072;22;20026;-23
2024/01/24 02:36:57;;;;;;;12.50;3.05;;;11.00;99.90;;;;;;6281553;22;20015;-24
2024/01/24 02:39:23;;;;;;;10.15;2.28;;;11.10;99.90;;;;;;6281581;22;20068;-24
2024/01/24 02:41:49;;;;;;;9.10;2.50;;;11.00;99.90;;;;;;6281538;22;20064;-24
2024/01/24 02:44:14;;;;;;;12.68;2.90;;;11.00;99.90;;;;;;6309214;22;20019;-24
2024/01/24 02:46:40;;;;;;;21.00;3.40;;;10.90;99.90;;;;;;6308918;22;20033;-24
2024/01/24 02:49:05;;;;;;;10.52;2.00;;;11.00;99.90;;;;;;6308434;22;20038;-24
2024/01/24 02:51:31;;;;;;;17.17;2.33;;;10.90;99.90;;;;;;6308716;22;20040;-24
2024/01/24 02:53:57;;;;;;;10.60;2.97;;;10.80;99.90;;;;;;6255484;22;20347;-24
2024/01/24 02:56:22;;;;;;;8.57;2.42;;;10.80;99.90;;;;;;6281357;22;20023;-25
2024/01/24 02:58:48;;;;;;;10.80;2.35;;;10.80;99.90;;;;;;6308533;22;20058;-25
2024/01/24 03:01:17;;;;;;;11.90;2.83;;;10.70;99.90;;;;;;6281368;22;20019;-26
2024/01/24 03:03:46;;;;;;;14.77;3.08;;;10.60;99.90;;;;;;6255804;22;20076;-25
2024/01/24 03:06:12;;;;;;;16.73;2.83;;;10.60;99.90;;;;;;6281624;22;20011;-26
2024/01/24 03:08:56;;;;;;;14.48;3.25;;;10.50;99.90;;;;;;6281449;22;20470;-26
2024/01/24 03:11:23;;;;;;;17.50;2.58;;;10.50;99.90;;;;;;6281691;22;20443;-26
2024/01/24 03:13:48;;;;;;;13.90;2.05;;;10.40;99.90;;;;;;6308587;22;20015;-26
2024/01/24 03:16:14;;;;;;;18.52;3.60;;;10.40;99.90;;;;;;6308519;22;20045;-27
2024/01/24 03:18:40;;;;;;;10.15;2.75;;;10.30;99.90;;;;;;6255589;22;20015;-26
2024/01/24 03:21:07;;;;;;;14.77;3.40;;;10.30;99.90;;;;;;6309054;22;20047;-26
2024/01/24 03:23:33;;;;;;;13.65;2.65;;;10.40;99.90;;;;;;6255511;22;20019;-26
2024/01/24 03:25:59;;;;;;;19.52;4.15;;;10.30;99.90;;;;;;6281179;22;20052;-26
2024/01/24 03:28:24;;;;;;;14.55;2.90;;;10.30;99.90;;;;;;6281033;22;20098;-26
2024/01/24 03:30:50;;;;;;;18.90;4.05;;;10.20;99.90;;;;;;6308366;22;20022;-26
2024/01/24 03:33:16;;;;;;;19.67;3.40;;;10.20;99.90;;;;;;6308380;22;20038;-27
2024/01/24 03:35:41;;;;;;;15.48;3.15;;;10.30;99.90;;;;;;6308412;22;20047;-27
2024/01/24 03:38:08;;;;;;;16.58;3.45;;;10.20;99.90;;;;;;6308329;22;20346;-26
2024/01/24 03:40:34;;;;;;;21.50;3.90;;;10.30;99.90;;;;;;6231231;22;20323;-26
2024/01/24 03:43:00;;;;;;;21.15;4.47;;;10.30;99.90;;;;;;6308331;22;20057;-26
2024/01/24 03:45:25;;;;;;;11.57;3.45;;;10.30;99.90;;;;;;6308354;22;20019;-27
2024/01/24 03:47:51;;;;;;;21.38;5.10;;;10.40;99.90;;;;;;6281044;22;20023;-27
2024/01/24 03:50:17;;;;;;;19.70;3.50;;;10.40;99.90;;;;;;6280580;22;20061;-27
2024/01/24 03:52:43;;;;;;;9.20;2.47;;;10.40;99.90;;;;;;6281045;22;20011;-27
2024/01/24 03:55:08;;;;;;;23.17;4.85;;;10.40;99.90;;;;;;6308823;22;20017;-29
2024/01/24 03:57:34;;;;;;;14.88;3.83;;;10.40;99.90;;;;;;6307947;22;20097;-27
2024/01/24 04:00:00;;;;;;;23.42;5.22;;;10.40;99.90;;;;;;6309061;22;20019;-27
2024/01/24 04:02:25;;;;;;;16.17;3.75;;;10.40;99.90;;;;;;6281094;22;20015;-27
2024/01/24 04:04:51;;;;;;;21.35;4.63;;;10.20;99.90;;;;;;6309264;22;20026;-27
2024/01/24 04:07:17;;;;;;;24.95;5.05;;;10.30;99.90;;;;;;6308187;22;20019;-28
2024/01/24 04:09:42;;;;;;;20.60;3.47;;;10.20;99.90;;;;;;6308469;22;20392;-27
2024/01/24 04:12:08;;;;;;;15.05;3.78;;;10.30;99.90;;;;;;6309105;22;20015;-28
2024/01/24 04:14:34;;;;;;;14.65;4.32;;;10.20;99.90;;;;;;6308815;22;20373;-28
2024/01/24 04:17:00;;;;;;;22.60;4.05;;;10.20;99.90;;;;;;6309061;22;20023;-28
2024/01/24 04:19:25;;;;;;;17.48;3.83;;;10.20;99.90;;;;;;6308099;22;20011;-28
2024/01/24 04:21:52;;;;;;;21.45;4.25;;;10.20;99.90;;;;;;6308035;22;20430;-28
2024/01/24 04:24:17;;;;;;;22.88;4.47;;;10.20;99.90;;;;;;6281000;22;20019;-28
2024/01/24 04:26:43;;;;;;;25.10;4.55;;;10.20;99.90;;;;;;6280801;22;20026;-28
2024/01/24 04:29:09;;;;;;;21.27;5.07;;;10.30;99.90;;;;;;6280908;22;20022;-28
2024/01/24 04:31:34;;;;;;;17.92;4.53;;;10.30;99.90;;;;;;6308092;22;20047;-28
2024/01/24 04:34:00;;;;;;;17.80;4.15;;;10.30;99.90;;;;;;6307988;22;20019;-28
2024/01/24 04:36:26;;;;;;;21.15;4.43;;;10.30;99.90;;;;;;6307969;22;20021;-29
2024/01/24 04:38:51;;;;;;;20.15;4.82;;;10.10;99.90;;;;;;6309029;22;20098;-28
2024/01/24 04:41:17;;;;;;;25.77;5.43;;;10.20;99.90;;;;;;6308600;22;20381;-29
2024/01/24 04:43:43;;;;;;;16.95;4.97;;;10.10;99.90;;;;;;6307977;22;20022;-28
2024/01/24 04:46:13;;;;;;;17.85;4.72;;;10.10;99.90;;;;;;6307923;22;20019;-29
2024/01/24 04:48:41;;;;;;;23.73;6.35;;;10.10;99.90;;;;;;6280639;22;20019;-29
2024/01/24 04:51:07;;;;;;;29.83;5.63;;;10.00;99.90;;;;;;6230741;22;20026;-29
2024/01/24 04:53:33;;;;;;;27.95;4.88;;;10.00;99.90;;;;;;6307883;22;20015;-29
2024/01/24 04:55:59;;;;;;;20.00;4.55;;;10.00;99.90;;;;;;6307900;22;20076;-28
2024/01/24 04:58:25;;;;;;;22.02;5.38;;;10.00;99.90;;;;;;6308174;22;20330;-29
2024/01/24 05:00:51;;;;;;;21.88;4.18;;;10.10;99.90;;;;;;6308495;22;20103;-29
2024/01/24 05:03:17;;;;;;;34.45;5.05;;;10.00;99.90;;;;;;6282514;22;20047;-29
2024/01/24 05:05:42;;;;;;;29.77;6.28;;;10.00;99.90;;;;;;6282586;22;20026;-29
2024/01/24 05:08:08;;;;;;;21.27;4.63;;;10.10;99.90;;;;;;6283316;22;20019;-29
2024/01/24 05:10:34;;;;;;;21.33;4.90;;;9.70;99.90;;;;;;6282358;22;20023;-29
2024/01/24 05:13:00;;;;;;;22.25;6.35;;;9.90;99.90;;;;;;6257037;22;20023;-29
2024/01/24 05:15:25;;;;;;;27.65;5.95;;;10.00;99.90;;;;;;6309325;22;20077;-29
2024/01/24 05:17:51;;;;;;;33.17;6.57;;;10.00;99.90;;;;;;6283067;22;20022;-29
2024/01/24 05:20:17;;;;;;;29.73;7.05;;;10.00;99.90;;;;;;6282281;22;20020;-29
2024/01/24 05:22:43;;;;;;;28.30;6.68;;;10.20;99.90;;;;;;6310343;22;20019;-30
2024/01/24 05:25:10;;;;;;;35.35;7.18;;;10.00;99.90;;;;;;6309561;22;20068;-30
2024/01/24 05:27:35;;;;;;;31.77;5.45;;;10.00;99.90;;;;;;6309613;22;20015;-29
2024/01/24 05:30:03;;;;;;;33.92;6.63;;;9.90;99.90;;;;;;6281935;22;20026;-29
2024/01/24 05:32:29;;;;;;;31.10;5.47;;;9.90;99.90;;;;;;6283048;22;20023;-30
2024/01/24 05:34:54;;;;;;;35.47;8.48;;;9.80;99.90;;;;;;6309496;22;20038;-30
2024/01/24 05:37:20;;;;;;;33.20;6.38;;;9.60;99.90;;;;;;6283257;22;20019;-30
2024/01/24 05:39:47;;;;;;;31.67;6.65;;;9.70;99.90;;;;;;6308952;22;20124;-30
2024/01/24 05:42:12;;;;;;;29.15;6.95;;;9.60;99.90;;;;;;6309723;22;20454;-30
2024/01/24 05:44:38;;;;;;;43.13;7.47;;;9.50;99.90;;;;;;6309805;22;20015;-30
2024/01/24 05:47:04;;;;;;;33.63;5.88;;;9.60;99.90;;;;;;6309482;22;20019;-30
2024/01/24 05:49:33;;;;;;;34.17;6.72;;;9.50;99.90;;;;;;6309356;22;20019;-30
2024/01/24 05:51:59;;;;;;;35.90;6.72;;;9.50;99.90;;;;;;6309400;22;20466;-30
2024/01/24 05:54:25;;;;;;;39.20;6.78;;;9.60;99.90;;;;;;6310049;22;20019;-30
2024/01/24 05:56:50;;;;;;;38.97;7.53;;;9.50;99.90;;;;;;6310281;22;20019;-30
2024/01/24 05:59:18;;;;;;;38.45;7.72;;;9.50;99.90;;;;;;6250297;22;20123;-30
2024/01/24 06:01:43;;;;;;;35.80;7.93;;;9.60;99.90;;;;;;6220856;23;20068;-31
2024/01/24 06:04:09;;;;;;;27.27;7.13;;;9.60;99.90;;;;;;6247707;22;20383;-30
2024/01/24 06:06:35;;;;;;;33.92;6.45;;;9.60;99.90;;;;;;6248034;23;20020;-31
2024/01/24 06:09:00;;;;;;;32.15;8.00;;;9.50;99.90;;;;;;6247641;23;20023;-30
2024/01/24 06:11:26;;;;;;;21.67;5.25;;;9.50;99.90;;;;;;6247911;23;20468;-30
2024/01/24 06:13:52;;;;;;;28.27;6.00;;;9.40;99.90;;;;;;6245905;23;20316;-30
2024/01/24 06:16:17;;;;;;;33.33;6.57;;;9.30;99.90;;;;;;6220787;23;20038;-31
2024/01/24 06:18:43;;;;;;;25.73;7.10;;;9.40;99.90;;;;;;6245970;23;20024;-31
2024/01/24 06:21:09;;;;;;;41.38;8.07;;;9.50;99.90;;;;;;6221778;23;20023;-31
2024/01/24 06:23:35;;;;;;;28.52;7.47;;;9.40;99.90;;;;;;6247481;23;20039;-31
2024/01/24 06:26:01;;;;;;;25.13;6.15;;;9.50;99.90;;;;;;6246057;23;20378;-31
2024/01/24 06:28:26;;;;;;;30.00;8.00;;;9.50;99.90;;;;;;6246777;23;20316;-31
2024/01/24 06:30:52;;;;;;;41.15;6.65;;;9.40;99.90;;;;;;6245559;23;20016;-31
2024/01/24 06:33:18;;;;;;;36.85;6.78;;;9.20;99.90;;;;;;6245853;23;20024;-31
2024/01/24 06:35:44;;;;;;;41.67;7.82;;;9.20;99.90;;;;;;6247665;23;20048;-30
2024/01/24 06:38:10;;;;;;;27.25;6.93;;;9.20;99.90;;;;;;6248031;22;20020;-31
2024/01/24 06:40:35;;;;;;;35.05;7.00;;;9.20;99.90;;;;;;6245407;23;20052;-33
2024/01/24 06:43:01;;;;;;;32.53;7.15;;;9.10;99.90;;;;;;6246152;23;20024;-31
2024/01/24 06:45:26;;;;;;;49.10;9.07;;;9.10;99.90;;;;;;6245430;23;20344;-31
2024/01/24 06:47:53;;;;;;;28.17;5.88;;;9.00;99.90;;;;;;6247248;23;20020;-31
2024/01/24 06:50:18;;;;;;;38.20;8.68;;;9.10;99.90;;;;;;6245661;22;20102;-31
2024/01/24 06:52:44;;;;;;;25.67;6.38;;;8.90;99.90;;;;;;6247096;23;20020;-32
2024/01/24 06:55:10;;;;;;;24.35;6.70;;;9.00;99.90;;;;;;6221494;23;20095;-32
2024/01/24 06:57:36;;;;;;;41.75;8.60;;;8.90;99.90;;;;;;6245427;22;20024;-31
2024/01/24 07:00:04;;;;;;;29.75;6.90;;;9.00;99.90;;;;;;6247421;23;20443;-33
2024/01/24 07:02:30;;;;;;;42.72;6.88;;;8.90;99.90;;;;;;6245611;23;20055;-31
2024/01/24 07:04:56;;;;;;;31.58;6.40;;;8.90;99.90;;;;;;6247071;23;20016;-32
2024/01/24 07:07:22;;;;;;;21.58;5.78;;;8.90;99.90;;;;;;6245539;23;20402;-32
2024/01/24 07:09:48;;;;;;;23.13;5.35;;;8.90;99.90;;;;;;6245617;23;20016;-31
2024/01/24 07:12:14;;;;;;;27.30;6.28;;;8.90;99.90;;;;;;6246501;23;20091;-32
2024/01/24 07:14:39;;;;;;;47.97;7.53;;;8.90;99.90;;;;;;6247033;23;20094;-32
2024/01/24 07:17:05;;;;;;;40.33;8.07;;;9.00;99.90;;;;;;6246999;22;20016;-31
2024/01/24 07:19:31;;;;;;;20.42;7.03;;;8.80;99.90;;;;;;6220624;23;20046;-32
2024/01/24 07:21:57;;;;;;;32.70;7.15;;;8.90;99.90;;;;;;6246755;23;20058;-32
2024/01/24 07:24:22;;;;;;;29.42;6.70;;;8.90;99.90;;;;;;6219703;23;20016;-31
2024/01/24 07:26:48;;;;;;;26.67;5.45;;;8.80;99.90;;;;;;6221050;23;20429;-33
2024/01/24 07:29:15;;;;;;;32.58;6.78;;;8.80;99.90;;;;;;6245326;23;20016;-31
2024/01/24 07:31:40;;;;;;;28.98;7.32;;;9.00;99.90;;;;;;6246836;23;20016;-31
2024/01/24 07:34:06;;;;;;;24.45;6.68;;;8.90;99.90;;;;;;6246822;22;20527;-31
2024/01/24 07:36:32;;;;;;;35.72;6.22;;;8.90;99.90;;;;;;6245223;23;20159;-31
2024/01/24 07:38:58;;;;;;;30.05;6.18;;;8.90;99.90;;;;;;6246551;23;20023;-31
2024/01/24 07:41:23;;;;;;;23.25;5.45;;;9.00;99.90;;;;;;6246570;22;20016;-33
2024/01/24 07:43:49;;;;;;;33.15;6.22;;;8.90;99.90;;;;;;6246645;22;20074;-33
2024/01/24 07:46:15;;;;;;;30.80;6.05;;;8.90;99.90;;;;;;6245995;23;20094;-34
2024/01/24 07:48:42;;;;;;;29.00;6.18;;;8.90;99.90;;;;;;6246531;23;20094;-31
2024/01/24 07:51:08;;;;;;;31.40;6.70;;;8.80;99.90;;;;;;6246431;22;20020;-33
2024/01/24 07:53:33;;;;;;;23.27;7.57;;;8.80;99.90;;;;;;6246523;23;20069;-32
2024/01/24 07:55:59;;;;;;;34.40;6.93;;;8.90;99.90;;;;;;6220696;23;20027;-32
2024/01/24 07:58:25;;;;;;;33.13;7.35;;;8.90;99.90;;;;;;6278320;22;20089;-31
2024/01/24 08:00:51;;;;;;;31.67;6.47;;;8.80;99.90;;;;;;6308281;22;20462;-32
2024/01/24 08:03:17;;;;;;;32.88;5.63;;;8.80;99.90;;;;;;6307832;22;20431;-32
2024/01/24 08:05:43;;;;;;;27.88;6.55;;;8.90;99.90;;;;;;6308298;22;20057;-32
2024/01/24 08:08:09;;;;;;;38.50;7.57;;;8.70;99.90;;;;;;6280884;22;20068;-32
2024/01/24 08:10:34;;;;;;;44.80;7.65;;;8.80;99.90;;;;;;6308120;22;20015;-33
2024/01/24 08:13:00;;;;;;;31.40;7.22;;;8.80;99.90;;;;;;6307911;22;20334;-32
2024/01/24 08:15:26;;;;;;;30.70;6.60;;;8.90;99.90;;;;;;6308068;22;20030;-32
2024/01/24 08:17:51;;;;;;;30.80;6.60;;;8.80;99.90;;;;;;6280847;22;20098;-32
2024/01/24 08:20:19;;;;;;;38.78;7.25;;;8.70;99.90;;;;;;6307876;22;20044;-33
2024/01/24 08:22:47;;;;;;;22.38;5.05;;;8.80;99.90;;;;;;6280262;22;20015;-32
2024/01/24 08:25:12;;;;;;;36.22;7.75;;;8.70;99.90;;;;;;6307934;22;20018;-31
2024/01/24 08:27:38;;;;;;;24.58;5.55;;;8.70;99.90;;;;;;6280400;22;20055;-32
2024/01/24 08:30:04;;;;;;;32.10;7.38;;;8.70;99.90;;;;;;6308434;22;20018;-32
2024/01/24 08:32:30;;;;;;;30.50;6.68;;;8.80;99.90;;;;;;6308457;22;20019;-32
2024/01/24 08:34:56;;;;;;;31.77;6.82;;;8.70;99.90;;;;;;6307824;22;20023;-32
2024/01/24 08:37:22;;;;;;;27.02;6.13;;;8.70;99.90;;;;;;6283274;22;20019;-32
2024/01/24 08:39:47;;;;;;;35.47;7.30;;;8.70;99.90;;;;;;6310626;22;20331;-33
2024/01/24 08:42:13;;;;;;;34.85;7.90;;;8.70;99.90;;;;;;6283357;22;20015;-32
2024/01/24 08:44:41;;;;;;;34.47;7.82;;;8.70;99.90;;;;;;6283469;22;20446;-32
2024/01/24 08:47:07;;;;;;;35.92;6.82;;;8.80;99.90;;;;;;6283392;22;20450;-31
2024/01/24 08:49:32;;;;;;;32.03;7.28;;;8.70;99.90;;;;;;6282723;22;20023;-34
2024/01/24 08:51:58;;;;;;;34.00;6.72;;;8.70;99.90;;;;;;6309872;22;20019;-32
2024/01/24 08:54:24;;;;;;;38.22;6.40;;;8.80;99.90;;;;;;6310243;22;20080;-32
2024/01/24 08:56:50;;;;;;;22.80;7.15;;;8.70;99.90;;;;;;6310170;22;20503;-32
2024/01/24 08:59:16;;;;;;;32.85;7.13;;;8.70;99.90;;;;;;6310801;22;20019;-34
2024/01/24 09:01:41;;;;;;;29.75;7.38;;;8.70;99.90;;;;;;6309643;22;20427;-31
2024/01/24 09:04:07;;;;;;;25.80;5.82;;;8.70;99.90;;;;;;6310367;22;20093;-32
2024/01/24 09:06:33;;;;;;;25.38;6.20;;;8.80;99.90;;;;;;6309761;22;20015;-33
2024/01/24 09:08:58;;;;;;;30.88;7.13;;;8.90;99.90;;;;;;6310391;22;20015;-32
2024/01/24 09:11:24;;;;;;;30.35;7.30;;;8.90;99.90;;;;;;6283419;22;20019;-32
2024/01/24 09:13:50;;;;;;;20.55;5.65;;;8.80;99.90;;;;;;6310364;22;20015;-32
2024/01/24 09:16:16;;;;;;;40.38;7.07;;;8.80;99.90;;;;;;6256415;22;20454;-32
2024/01/24 09:18:42;;;;;;;31.25;7.93;;;8.80;99.90;;;;;;6282159;22;20026;-32
2024/01/24 09:21:08;;;;;;;32.92;6.95;;;8.80;99.90;;;;;;6283077;22;20034;-33
2024/01/24 09:23:34;;;;;;;23.83;5.40;;;8.90;99.90;;;;;;6309622;22;20508;-33
2024/01/24 09:26:01;;;;;;;30.63;6.65;;;8.90;99.90;;;;;;6282342;22;20021;-32
2024/01/24 09:28:27;;;;;;;35.03;8.23;;;9.00;99.90;;;;;;6309372;22;20034;-35
2024/01/24 09:30:53;;;;;;;28.63;6.80;;;9.00;99.90;;;;;;6309469;22;20015;-32
2024/01/24 09:33:18;;;;;;;21.77;6.30;;;9.00;99.90;;;;;;6309768;22;20023;-32
2024/01/24 09:35:46;;;;;;;30.00;6.72;;;9.10;99.90;;;;;;6282443;22;20331;-32
2024/01/24 09:38:15;;;;;;;32.65;6.47;;;9.00;99.90;;;;;;6309365;22;20019;-32
2024/01/24 09:40:41;;;;;;;29.42;5.75;;;9.00;99.90;;;;;;6309209;22;20011;-33
2024/01/24 09:43:10;;;;;;;33.50;5.97;;;9.00;99.90;;;;;;6309382;22;20054;-32
2024/01/24 09:45:42;;;;;;;33.30;7.13;;;9.10;99.90;;;;;;6282279;22;20055;-32
2024/01/24 09:48:10;;;;;;;30.80;7.20;;;9.10;99.90;;;;;;6282099;22;20038;-32
2024/01/24 09:50:37;;;;;;;24.80;6.88;;;9.10;99.90;;;;;;6281939;22;20019;-33
2024/01/24 09:53:05;;;;;;;36.13;7.00;;;9.10;99.90;;;;;;6282924;22;20040;-33
2024/01/24 09:55:32;;;;;;;28.92;7.65;;;9.00;99.90;;;;;;6309905;22;20098;-32
2024/01/24 09:57:58;;;;;;;36.25;7.32;;;9.10;99.90;;;;;;6281749;22;20019;-34
2024/01/24 10:00:24;;;;;;;33.53;6.95;;;9.10;99.90;;;;;;6281811;22;20026;-34
2024/01/24 10:02:50;;;;;;;31.08;7.10;;;9.10;99.90;;;;;;6256467;22;20295;-33
2024/01/24 10:05:18;;;;;;;21.90;6.53;;;9.10;99.90;;;;;;6283012;22;20078;-33
2024/01/24 10:07:44;;;;;;;33.08;7.53;;;9.10;99.90;;;;;;6309072;22;20019;-32
2024/01/24 10:10:12;;;;;;;25.13;6.30;;;9.10;99.90;;;;;;6309927;22;20089;-32
2024/01/24 10:12:39;;;;;;;29.42;6.93;;;9.10;99.90;;;;;;6281497;22;20098;-33
2024/01/24 10:15:05;;;;;;;46.53;8.50;;;9.20;99.90;;;;;;6281723;22;20015;-33
2024/01/24 10:17:31;;;;;;;24.25;6.22;;;9.20;99.90;;;;;;6309161;22;20030;-32
2024/01/24 10:19:58;;;;;;;28.20;7.80;;;9.20;99.90;;;;;;6308864;22;20019;-32
2024/01/24 10:22:24;;;;;;;29.73;6.55;;;9.30;99.90;;;;;;6281949;22;20081;-33
2024/01/24 10:24:50;;;;;;;25.08;5.88;;;9.40;99.90;;;;;;6256042;22;20107;-32
2024/01/24 10:27:16;;;;;;;21.02;6.25;;;9.40;99.90;;;;;;6255942;22;20023;-32
2024/01/24 10:29:45;;;;;;;24.70;6.07;;;9.30;99.90;;;;;;6281822;22;20016;-32
2024/01/24 10:32:10;;;;;;;23.70;6.32;;;9.20;99.90;;;;;;6308833;22;20024;-32
2024/01/24 10:34:39;;;;;;;24.48;6.20;;;9.10;99.90;;;;;;6281719;22;20018;-33
2024/01/24 10:37:08;;;;;;;30.42;7.53;;;9.30;99.90;;;;;;6308813;22;20019;-32
2024/01/24 10:39:36;;;;;;;29.88;5.72;;;9.40;99.90;;;;;;6281585;22;20470;-34
2024/01/24 10:42:06;;;;;;;21.88;5.20;;;9.30;99.90;;;;;;6281244;22;20339;-32
2024/01/24 10:44:35;;;;;;;32.25;6.10;;;9.30;99.90;;;;;;6309686;22;20022;-33
2024/01/24 10:47:02;;;;;;;26.70;5.72;;;9.40;99.90;;;;;;6308752;22;20054;-32
2024/01/24 10:49:30;;;;;;;33.60;6.47;;;9.30;99.90;;;;;;6308952;22;20015;-32
2024/01/24 10:51:56;;;;;;;32.67;7.00;;;9.30;99.90;;;;;;6308945;22;20081;-33
2024/01/24 10:54:22;;;;;;;36.88;7.38;;;9.20;99.90;;;;;;6308709;22;20054;-33
2024/01/24 10:56:50;;;;;;;28.88;7.03;;;9.20;99.90;;;;;;6308877;22;20323;-32
2024/01/24 10:59:19;;;;;;;22.08;5.65;;;9.30;99.90;;;;;;6309316;22;20064;-33
2024/01/24 11:01:48;;;;;;;26.92;6.30;;;9.30;99.90;;;;;;6308465;22;20011;-32
2024/01/24 11:04:19;;;;;;;28.42;6.22;;;9.30;99.90;;;;;;6308573;22;20019;-32
2024/01/24 11:06:59;;;;;;;26.67;6.97;;;9.20;99.90;;;;;;6282319;22;20015;-31
2024/01/24 11:09:38;;;;;;;28.30;6.45;;;9.30;99.90;;;;;;6282035;22;20022;-33
2024/01/24 11:12:04;;;;;;;27.27;5.50;;;9.30;99.90;;;;;;6281554;22;20019;-32
2024/01/24 11:14:41;;;;;;;20.23;4.38;;;9.30;99.90;;;;;;6255428;22;20019;-32
2024/01/24 11:17:07;;;;;;;29.98;6.40;;;9.40;99.90;;;;;;6281106;22;20084;-33
2024/01/24 11:19:33;;;;;;;26.02;6.05;;;9.50;99.90;;;;;;6309467;22;20015;-32
2024/01/24 11:22:08;;;;;;;29.20;6.40;;;9.40;99.90;;;;;;6309395;22;20057;-33
2024/01/24 11:24:39;;;;;;;16.67;3.90;;;9.30;99.90;;;;;;6281498;22;20012;-32
2024/01/24 11:27:33;;;;;;;24.05;6.65;;;9.40;99.90;;;;;;6308326;22;20374;-33
2024/01/24 11:30:16;;;;;;;19.83;5.63;;;9.40;99.90;;;;;;6308348;22;20023;-32
2024/01/24 11:32:47;;;;;;;26.08;5.72;;;9.40;99.90;;;;;;6308413;22;20015;-32
2024/01/24 11:35:35;;;;;;;21.92;5.78;;;9.40;99.90;;;;;;6281108;22;20106;-32
2024/01/24 11:38:27;;;;;;;28.30;6.32;;;9.40;99.90;;;;;;6308452;22;20051;-33
2024/01/24 11:40:57;;;;;;;24.48;5.82;;;9.40;99.90;;;;;;6308401;22;20015;-34
2024/01/24 11:43:27;;;;;;;29.65;6.65;;;9.40;99.90;;;;;;6255343;22;20462;-32
2024/01/24 11:46:01;;;;;;;24.23;5.97;;;9.40;99.90;;;;;;6255692;22;20019;-32
2024/01/24 11:48:27;;;;;;;26.00;6.07;;;9.40;99.90;;;;;;6281081;22;20022;-32
2024/01/24 11:51:00;;;;;;;19.80;5.10;;;9.30;99.90;;;;;;6255367;22;20088;-32
2024/01/24 11:53:27;;;;;;;24.73;6.20;;;9.20;99.90;;;;;;6308286;22;20011;-32
2024/01/24 11:55:58;;;;;;;23.73;6.38;;;9.40;99.90;;;;;;6308046;22;20086;-32
2024/01/24 11:58:26;;;;;;;29.52;6.57;;;9.40;99.90;;;;;;6307588;22;20026;-32
2024/01/24 12:00:56;;;;;;;26.67;6.97;;;9.40;99.90;;;;;;6309087;22;20022;-33
2024/01/24 12:03:22;;;;;;;34.45;8.57;;;9.30;99.90;;;;;;6280600;22;20075;-32
2024/01/24 12:05:49;;;;;;;29.88;7.00;;;9.50;99.90;;;;;;6308019;22;20094;-32
2024/01/24 12:08:14;;;;;;;28.48;6.30;;;9.40;99.90;;;;;;6308069;22;20091;-34
2024/01/24 12:10:40;;;;;;;25.77;6.68;;;9.40;99.90;;;;;;6281320;22;20454;-32
2024/01/24 12:13:07;;;;;;;34.63;7.78;;;9.40;99.90;;;;;;6280633;22;20016;-33
2024/01/24 12:15:36;;;;;;;28.73;6.60;;;9.50;99.90;;;;;;6280222;22;20019;-33
2024/01/24 12:18:11;;;;;;;25.70;6.13;;;9.50;99.90;;;;;;6280756;22;20015;-32
2024/01/24 12:20:38;;;;;;;22.13;5.78;;;9.50;99.90;;;;;;6307496;22;20338;-34
2024/01/24 12:23:08;;;;;;;32.53;6.95;;;9.30;99.90;;;;;;6280691;22;20019;-32
2024/01/24 12:25:33;;;;;;;28.13;5.97;;;9.20;99.90;;;;;;6307606;22;20485;-34
2024/01/24 12:28:01;;;;;;;29.02;8.45;;;9.10;99.90;;;;;;6308030;22;20020;-34
2024/01/24 12:30:34;;;;;;;30.92;7.50;;;9.20;99.90;;;;;;6308055;22;20019;-34
2024/01/24 12:33:04;;;;;;;32.05;6.38;;;9.20;99.90;;;;;;6308603;22;20015;-32
2024/01/24 12:35:31;;;;;;;31.35;8.05;;;9.20;99.90;;;;;;6308783;22;20011;-33
2024/01/24 12:38:04;;;;;;;23.33;5.22;;;9.30;99.90;;;;;;6308467;22;20022;-32
2024/01/24 12:40:31;;;;;;;23.85;6.32;;;9.40;99.90;;;;;;6308450;22;20054;-33